sensor_id;sensor_type;location;lat;lon;timestamp;P1;durP1;ratioP1;P2;durP2;ratioP2
4614;SDS011;2320;51.362;6.946;2024-02-21T00:01:39;29.63;;;12.70;;
4614;SDS011;2320;51.362;6.946;2024-02-21T00:04:04;20.17;;;13.60;;
4614;SDS011;2320;51.362;6.946;2024-02-21T00:06:30;25.20;;;11.63;;
4614;SDS011;2320;51.362;6.946;2024-02-21T00:08:56;26.40;;;12.10;;
4614;SDS011;2320;51.362;6.946;2024-02-21T00:11:22;23.07;;;11.73;;
4614;SDS011;2320;51.362;6.946;2024-02-21T00:13:47;28.17;;;13.20;;
4614;SDS011;2320;51.362;6.946;2024-02-21T00:16:13;28.20;;;13.40;;
4614;SDS011;2320;51.362;6.946;2024-02-21T00:18:40;25.17;;;11.90;;
4614;SDS011;2320;51.362;6.946;2024-02-21T00:21:06;24.20;;;11.77;;
4614;SDS011;2320;51.362;6.946;2024-02-21T00:23:31;23.13;;;10.90;;
4614;SDS011;2320;51.362;6.946;2024-02-21T00:25:57;25.87;;;12.50;;
4614;SDS011;2320;51.362;6.946;2024-02-21T00:28:23;25.53;;;12.30;;
4614;SDS011;2320;51.362;6.946;2024-02-21T00:30:48;24.33;;;11.73;;
4614;SDS011;2320;51.362;6.946;2024-02-21T00:33:15;24.87;;;12.90;;
4614;SDS011;2320;51.362;6.946;2024-02-21T00:35:44;21.80;;;12.40;;
4614;SDS011;2320;51.362;6.946;2024-02-21T00:38:09;24.47;;;12.70;;
4614;SDS011;2320;51.362;6.946;2024-02-21T00:40:35;17.23;;;12.07;;
4614;SDS011;2320;51.362;6.946;2024-02-21T00:43:01;27.53;;;12.97;;
4614;SDS011;2320;51.362;6.946;2024-02-21T00:45:26;23.43;;;11.50;;
4614;SDS011;2320;51.362;6.946;2024-02-21T00:47:52;23.50;;;11.60;;
4614;SDS011;2320;51.362;6.946;2024-02-21T00:50:17;24.53;;;12.90;;
4614;SDS011;2320;51.362;6.946;2024-02-21T00:52:43;27.73;;;11.53;;
4614;SDS011;2320;51.362;6.946;2024-02-21T00:55:09;20.77;;;11.23;;
4614;SDS011;2320;51.362;6.946;2024-02-21T00:57:35;27.33;;;12.97;;
4614;SDS011;2320;51.362;6.946;2024-02-21T01:00:01;30.23;;;13.53;;
4614;SDS011;2320;51.362;6.946;2024-02-21T01:02:27;20.40;;;13.17;;
4614;SDS011;2320;51.362;6.946;2024-02-21T01:04:53;27.80;;;12.30;;
4614;SDS011;2320;51.362;6.946;2024-02-21T01:07:18;22.77;;;11.47;;
4614;SDS011;2320;51.362;6.946;2024-02-21T01:09:44;20.93;;;12.10;;
4614;SDS011;2320;51.362;6.946;2024-02-21T01:12:09;22.40;;;12.30;;
4614;SDS011;2320;51.362;6.946;2024-02-21T01:14:35;24.70;;;12.63;;
4614;SDS011;2320;51.362;6.946;2024-02-21T01:17:00;21.20;;;11.00;;
4614;SDS011;2320;51.362;6.946;2024-02-21T01:19:26;29.03;;;11.30;;
4614;SDS011;2320;51.362;6.946;2024-02-21T01:21:52;25.33;;;13.23;;
4614;SDS011;2320;51.362;6.946;2024-02-21T01:24:17;24.37;;;12.20;;
4614;SDS011;2320;51.362;6.946;2024-02-21T01:26:43;28.97;;;14.13;;
4614;SDS011;2320;51.362;6.946;2024-02-21T01:29:08;30.37;;;12.53;;
4614;SDS011;2320;51.362;6.946;2024-02-21T01:31:34;26.53;;;12.00;;
4614;SDS011;2320;51.362;6.946;2024-02-21T01:34:00;23.23;;;12.40;;
4614;SDS011;2320;51.362;6.946;2024-02-21T01:36:25;29.80;;;11.97;;
4614;SDS011;2320;51.362;6.946;2024-02-21T01:38:51;29.47;;;13.63;;
4614;SDS011;2320;51.362;6.946;2024-02-21T01:41:16;22.37;;;11.43;;
4614;SDS011;2320;51.362;6.946;2024-02-21T01:43:42;24.40;;;11.93;;
4614;SDS011;2320;51.362;6.946;2024-02-21T01:46:07;22.87;;;12.63;;
4614;SDS011;2320;51.362;6.946;2024-02-21T01:48:33;23.67;;;12.33;;
4614;SDS011;2320;51.362;6.946;2024-02-21T01:51:00;30.43;;;13.10;;
4614;SDS011;2320;51.362;6.946;2024-02-21T01:53:30;22.63;;;11.43;;
4614;SDS011;2320;51.362;6.946;2024-02-21T01:55:58;23.80;;;12.47;;
4614;SDS011;2320;51.362;6.946;2024-02-21T01:58:23;20.33;;;12.03;;
4614;SDS011;2320;51.362;6.946;2024-02-21T02:00:50;18.67;;;10.90;;
4614;SDS011;2320;51.362;6.946;2024-02-21T02:03:15;17.07;;;11.63;;
4614;SDS011;2320;51.362;6.946;2024-02-21T02:05:44;26.07;;;10.90;;
4614;SDS011;2320;51.362;6.946;2024-02-21T02:08:12;24.73;;;12.00;;
4614;SDS011;2320;51.362;6.946;2024-02-21T02:10:44;20.63;;;12.13;;
4614;SDS011;2320;51.362;6.946;2024-02-21T02:13:11;23.90;;;11.60;;
4614;SDS011;2320;51.362;6.946;2024-02-21T02:15:40;22.33;;;10.90;;
4614;SDS011;2320;51.362;6.946;2024-02-21T02:18:10;20.20;;;11.27;;
4614;SDS011;2320;51.362;6.946;2024-02-21T02:20:37;27.93;;;11.33;;
4614;SDS011;2320;51.362;6.946;2024-02-21T02:23:48;19.80;;;11.87;;
4614;SDS011;2320;51.362;6.946;2024-02-21T02:25:53;20.33;;;11.60;;
4614;SDS011;2320;51.362;6.946;2024-02-21T02:28:19;19.20;;;12.07;;
4614;SDS011;2320;51.362;6.946;2024-02-21T02:30:46;23.10;;;11.47;;
4614;SDS011;2320;51.362;6.946;2024-02-21T02:33:11;27.10;;;13.17;;
4614;SDS011;2320;51.362;6.946;2024-02-21T02:35:37;23.83;;;12.07;;
4614;SDS011;2320;51.362;6.946;2024-02-21T02:38:03;24.23;;;12.87;;
4614;SDS011;2320;51.362;6.946;2024-02-21T02:40:29;17.13;;;10.77;;
4614;SDS011;2320;51.362;6.946;2024-02-21T02:42:58;26.03;;;12.50;;
4614;SDS011;2320;51.362;6.946;2024-02-21T02:45:24;18.63;;;11.10;;
4614;SDS011;2320;51.362;6.946;2024-02-21T02:47:51;20.53;;;12.23;;
4614;SDS011;2320;51.362;6.946;2024-02-21T02:50:17;21.23;;;10.90;;
4614;SDS011;2320;51.362;6.946;2024-02-21T02:52:42;17.67;;;10.90;;
4614;SDS011;2320;51.362;6.946;2024-02-21T02:55:08;23.70;;;11.67;;
4614;SDS011;2320;51.362;6.946;2024-02-21T02:57:34;21.67;;;11.60;;
4614;SDS011;2320;51.362;6.946;2024-02-21T02:59:59;24.50;;;12.50;;
4614;SDS011;2320;51.362;6.946;2024-02-21T03:02:25;24.30;;;11.10;;
4614;SDS011;2320;51.362;6.946;2024-02-21T03:04:50;19.77;;;11.13;;
4614;SDS011;2320;51.362;6.946;2024-02-21T03:07:16;28.57;;;13.30;;
4614;SDS011;2320;51.362;6.946;2024-02-21T03:09:42;31.60;;;12.30;;
4614;SDS011;2320;51.362;6.946;2024-02-21T03:12:10;20.00;;;11.47;;
4614;SDS011;2320;51.362;6.946;2024-02-21T03:14:36;18.70;;;10.50;;
4614;SDS011;2320;51.362;6.946;2024-02-21T03:17:02;16.53;;;10.83;;
4614;SDS011;2320;51.362;6.946;2024-02-21T03:19:28;25.40;;;13.50;;
4614;SDS011;2320;51.362;6.946;2024-02-21T03:21:54;17.77;;;10.97;;
4614;SDS011;2320;51.362;6.946;2024-02-21T03:24:20;25.67;;;10.70;;
4614;SDS011;2320;51.362;6.946;2024-02-21T03:26:46;22.83;;;10.63;;
4614;SDS011;2320;51.362;6.946;2024-02-21T03:29:14;17.07;;;10.33;;
4614;SDS011;2320;51.362;6.946;2024-02-21T03:31:40;18.63;;;9.97;;
4614;SDS011;2320;51.362;6.946;2024-02-21T03:34:06;20.03;;;11.07;;
4614;SDS011;2320;51.362;6.946;2024-02-21T03:36:32;24.07;;;11.20;;
4614;SDS011;2320;51.362;6.946;2024-02-21T03:38:58;26.80;;;12.23;;
4614;SDS011;2320;51.362;6.946;2024-02-21T03:41:23;20.57;;;11.20;;
4614;SDS011;2320;51.362;6.946;2024-02-21T03:43:49;23.63;;;10.97;;
4614;SDS011;2320;51.362;6.946;2024-02-21T03:46:14;24.83;;;11.37;;
4614;SDS011;2320;51.362;6.946;2024-02-21T03:48:40;17.33;;;11.13;;
4614;SDS011;2320;51.362;6.946;2024-02-21T03:51:06;18.07;;;10.53;;
4614;SDS011;2320;51.362;6.946;2024-02-21T03:53:32;17.37;;;10.60;;
4614;SDS011;2320;51.362;6.946;2024-02-21T03:56:00;14.93;;;10.30;;
4614;SDS011;2320;51.362;6.946;2024-02-21T03:58:28;18.23;;;9.80;;
4614;SDS011;2320;51.362;6.946;2024-02-21T04:00:53;21.20;;;12.27;;
4614;SDS011;2320;51.362;6.946;2024-02-21T04:03:19;18.70;;;10.50;;
4614;SDS011;2320;51.362;6.946;2024-02-21T04:05:44;15.67;;;10.53;;
4614;SDS011;2320;51.362;6.946;2024-02-21T04:08:11;15.93;;;10.80;;
4614;SDS011;2320;51.362;6.946;2024-02-21T04:10:37;13.90;;;11.40;;
4614;SDS011;2320;51.362;6.946;2024-02-21T04:13:03;21.77;;;11.80;;
4614;SDS011;2320;51.362;6.946;2024-02-21T04:15:31;14.90;;;9.37;;
4614;SDS011;2320;51.362;6.946;2024-02-21T04:17:56;16.43;;;9.47;;
4614;SDS011;2320;51.362;6.946;2024-02-21T04:20:22;19.90;;;11.53;;
4614;SDS011;2320;51.362;6.946;2024-02-21T04:22:48;27.53;;;12.17;;
4614;SDS011;2320;51.362;6.946;2024-02-21T04:25:14;18.20;;;9.70;;
4614;SDS011;2320;51.362;6.946;2024-02-21T04:27:40;16.63;;;9.30;;
4614;SDS011;2320;51.362;6.946;2024-02-21T04:30:06;11.67;;;9.23;;
4614;SDS011;2320;51.362;6.946;2024-02-21T04:32:32;18.90;;;9.90;;
4614;SDS011;2320;51.362;6.946;2024-02-21T04:34:58;20.73;;;9.73;;
4614;SDS011;2320;51.362;6.946;2024-02-21T04:37:23;24.47;;;10.40;;
4614;SDS011;2320;51.362;6.946;2024-02-21T04:39:49;13.50;;;9.13;;
4614;SDS011;2320;51.362;6.946;2024-02-21T04:42:15;16.00;;;9.67;;
4614;SDS011;2320;51.362;6.946;2024-02-21T04:44:41;13.10;;;7.93;;
4614;SDS011;2320;51.362;6.946;2024-02-21T04:47:06;14.47;;;8.57;;
4614;SDS011;2320;51.362;6.946;2024-02-21T04:49:32;20.40;;;9.83;;
4614;SDS011;2320;51.362;6.946;2024-02-21T04:51:58;20.63;;;9.50;;
4614;SDS011;2320;51.362;6.946;2024-02-21T04:54:23;15.03;;;8.40;;
4614;SDS011;2320;51.362;6.946;2024-02-21T04:56:49;25.13;;;7.60;;
4614;SDS011;2320;51.362;6.946;2024-02-21T04:59:15;20.60;;;9.00;;
4614;SDS011;2320;51.362;6.946;2024-02-21T05:01:41;20.20;;;9.80;;
4614;SDS011;2320;51.362;6.946;2024-02-21T05:04:06;18.87;;;8.87;;
4614;SDS011;2320;51.362;6.946;2024-02-21T05:06:32;17.53;;;8.70;;
4614;SDS011;2320;51.362;6.946;2024-02-21T05:09:01;14.90;;;9.30;;
4614;SDS011;2320;51.362;6.946;2024-02-21T05:11:28;15.53;;;8.70;;
4614;SDS011;2320;51.362;6.946;2024-02-21T05:13:53;18.97;;;8.60;;
4614;SDS011;2320;51.362;6.946;2024-02-21T05:16:19;13.37;;;7.90;;
4614;SDS011;2320;51.362;6.946;2024-02-21T05:18:44;15.70;;;10.10;;
4614;SDS011;2320;51.362;6.946;2024-02-21T05:21:10;19.03;;;7.93;;
4614;SDS011;2320;51.362;6.946;2024-02-21T05:23:35;16.90;;;7.73;;
4614;SDS011;2320;51.362;6.946;2024-02-21T05:26:01;11.13;;;6.70;;
4614;SDS011;2320;51.362;6.946;2024-02-21T05:28:26;11.83;;;7.80;;
4614;SDS011;2320;51.362;6.946;2024-02-21T05:30:52;20.03;;;8.70;;
4614;SDS011;2320;51.362;6.946;2024-02-21T05:33:18;10.50;;;7.60;;
4614;SDS011;2320;51.362;6.946;2024-02-21T05:35:46;12.97;;;7.70;;
4614;SDS011;2320;51.362;6.946;2024-02-21T05:38:13;10.67;;;7.37;;
4614;SDS011;2320;51.362;6.946;2024-02-21T05:40:39;12.50;;;8.57;;
4614;SDS011;2320;51.362;6.946;2024-02-21T05:43:05;14.90;;;7.33;;
4614;SDS011;2320;51.362;6.946;2024-02-21T05:45:32;13.10;;;7.63;;
4614;SDS011;2320;51.362;6.946;2024-02-21T05:47:57;13.60;;;7.10;;
4614;SDS011;2320;51.362;6.946;2024-02-21T05:50:23;14.80;;;7.50;;
4614;SDS011;2320;51.362;6.946;2024-02-21T05:52:52;14.80;;;7.97;;
4614;SDS011;2320;51.362;6.946;2024-02-21T05:55:19;10.83;;;7.33;;
4614;SDS011;2320;51.362;6.946;2024-02-21T05:57:45;14.00;;;7.07;;
4614;SDS011;2320;51.362;6.946;2024-02-21T06:00:10;13.30;;;7.27;;
4614;SDS011;2320;51.362;6.946;2024-02-21T06:02:36;12.07;;;7.07;;
4614;SDS011;2320;51.362;6.946;2024-02-21T06:05:02;9.13;;;6.60;;
4614;SDS011;2320;51.362;6.946;2024-02-21T06:07:27;14.00;;;8.20;;
4614;SDS011;2320;51.362;6.946;2024-02-21T06:09:53;13.97;;;8.30;;
4614;SDS011;2320;51.362;6.946;2024-02-21T06:12:19;11.47;;;7.60;;
4614;SDS011;2320;51.362;6.946;2024-02-21T06:14:44;12.50;;;7.63;;
4614;SDS011;2320;51.362;6.946;2024-02-21T06:17:10;17.33;;;8.47;;
4614;SDS011;2320;51.362;6.946;2024-02-21T06:19:39;11.73;;;6.27;;
4614;SDS011;2320;51.362;6.946;2024-02-21T06:22:05;13.20;;;7.00;;
4614;SDS011;2320;51.362;6.946;2024-02-21T06:24:33;11.77;;;6.67;;
4614;SDS011;2320;51.362;6.946;2024-02-21T06:26:59;9.87;;;6.73;;
4614;SDS011;2320;51.362;6.946;2024-02-21T06:29:25;10.93;;;7.23;;
4614;SDS011;2320;51.362;6.946;2024-02-21T06:31:50;15.13;;;7.70;;
4614;SDS011;2320;51.362;6.946;2024-02-21T06:34:16;12.03;;;7.27;;
4614;SDS011;2320;51.362;6.946;2024-02-21T06:36:42;13.70;;;8.17;;
4614;SDS011;2320;51.362;6.946;2024-02-21T06:39:07;13.63;;;7.77;;
4614;SDS011;2320;51.362;6.946;2024-02-21T06:41:33;12.30;;;6.27;;
4614;SDS011;2320;51.362;6.946;2024-02-21T06:43:59;15.10;;;6.63;;
4614;SDS011;2320;51.362;6.946;2024-02-21T06:46:25;13.73;;;7.27;;
4614;SDS011;2320;51.362;6.946;2024-02-21T06:48:51;17.77;;;7.20;;
4614;SDS011;2320;51.362;6.946;2024-02-21T06:51:17;17.77;;;8.30;;
4614;SDS011;2320;51.362;6.946;2024-02-21T06:53:43;12.80;;;6.27;;
4614;SDS011;2320;51.362;6.946;2024-02-21T06:56:09;10.50;;;6.67;;
4614;SDS011;2320;51.362;6.946;2024-02-21T06:58:35;13.50;;;6.27;;
4614;SDS011;2320;51.362;6.946;2024-02-21T07:01:01;9.63;;;6.47;;
4614;SDS011;2320;51.362;6.946;2024-02-21T07:03:26;11.40;;;6.67;;
4614;SDS011;2320;51.362;6.946;2024-02-21T07:05:52;8.30;;;5.57;;
4614;SDS011;2320;51.362;6.946;2024-02-21T07:08:18;16.73;;;7.10;;
4614;SDS011;2320;51.362;6.946;2024-02-21T07:10:43;12.60;;;6.37;;
4614;SDS011;2320;51.362;6.946;2024-02-21T07:13:09;17.63;;;6.80;;
4614;SDS011;2320;51.362;6.946;2024-02-21T07:15:35;12.40;;;6.90;;
4614;SDS011;2320;51.362;6.946;2024-02-21T07:18:01;10.53;;;6.80;;
4614;SDS011;2320;51.362;6.946;2024-02-21T07:20:27;25.67;;;11.23;;
4614;SDS011;2320;51.362;6.946;2024-02-21T07:22:54;22.07;;;8.70;;
4614;SDS011;2320;51.362;6.946;2024-02-21T07:25:19;8.90;;;5.80;;
4614;SDS011;2320;51.362;6.946;2024-02-21T07:27:45;17.27;;;5.57;;
4614;SDS011;2320;51.362;6.946;2024-02-21T07:30:10;12.57;;;6.10;;
4614;SDS011;2320;51.362;6.946;2024-02-21T07:32:36;12.27;;;6.33;;
4614;SDS011;2320;51.362;6.946;2024-02-21T07:35:02;14.77;;;6.87;;
4614;SDS011;2320;51.362;6.946;2024-02-21T07:37:27;13.60;;;5.53;;
4614;SDS011;2320;51.362;6.946;2024-02-21T07:39:53;9.87;;;6.20;;
4614;SDS011;2320;51.362;6.946;2024-02-21T07:42:19;12.20;;;5.80;;
4614;SDS011;2320;51.362;6.946;2024-02-21T07:44:45;8.30;;;5.53;;
4614;SDS011;2320;51.362;6.946;2024-02-21T07:47:10;13.00;;;5.47;;
4614;SDS011;2320;51.362;6.946;2024-02-21T07:49:45;18.77;;;5.87;;
4614;SDS011;2320;51.362;6.946;2024-02-21T07:52:11;7.13;;;4.93;;
4614;SDS011;2320;51.362;6.946;2024-02-21T07:54:37;11.07;;;5.40;;
4614;SDS011;2320;51.362;6.946;2024-02-21T07:57:02;15.23;;;6.97;;
4614;SDS011;2320;51.362;6.946;2024-02-21T07:59:29;8.30;;;4.97;;
4614;SDS011;2320;51.362;6.946;2024-02-21T08:01:58;8.60;;;5.17;;
4614;SDS011;2320;51.362;6.946;2024-02-21T08:04:24;6.67;;;5.27;;
4614;SDS011;2320;51.362;6.946;2024-02-21T08:06:53;7.73;;;4.57;;
4614;SDS011;2320;51.362;6.946;2024-02-21T08:09:21;9.77;;;5.50;;
4614;SDS011;2320;51.362;6.946;2024-02-21T08:11:47;9.33;;;4.90;;
4614;SDS011;2320;51.362;6.946;2024-02-21T08:14:13;12.43;;;5.53;;
4614;SDS011;2320;51.362;6.946;2024-02-21T08:16:41;10.13;;;4.63;;
4614;SDS011;2320;51.362;6.946;2024-02-21T08:19:07;14.77;;;5.20;;
4614;SDS011;2320;51.362;6.946;2024-02-21T08:21:32;9.53;;;4.80;;
4614;SDS011;2320;51.362;6.946;2024-02-21T08:23:58;11.03;;;6.00;;
4614;SDS011;2320;51.362;6.946;2024-02-21T08:26:23;13.07;;;5.73;;
4614;SDS011;2320;51.362;6.946;2024-02-21T08:28:49;14.43;;;5.20;;
4614;SDS011;2320;51.362;6.946;2024-02-21T08:31:19;16.00;;;5.27;;
4614;SDS011;2320;51.362;6.946;2024-02-21T08:33:45;15.03;;;5.40;;
4614;SDS011;2320;51.362;6.946;2024-02-21T08:36:19;9.00;;;4.60;;
4614;SDS011;2320;51.362;6.946;2024-02-21T08:38:45;16.50;;;5.07;;
4614;SDS011;2320;51.362;6.946;2024-02-21T08:41:11;12.73;;;6.10;;
4614;SDS011;2320;51.362;6.946;2024-02-21T08:43:37;7.50;;;5.17;;
4614;SDS011;2320;51.362;6.946;2024-02-21T08:46:03;7.97;;;5.37;;
4614;SDS011;2320;51.362;6.946;2024-02-21T08:48:30;11.43;;;5.33;;
4614;SDS011;2320;51.362;6.946;2024-02-21T08:50:55;7.17;;;4.90;;
4614;SDS011;2320;51.362;6.946;2024-02-21T08:53:21;10.43;;;5.87;;
4614;SDS011;2320;51.362;6.946;2024-02-21T08:55:47;12.93;;;5.60;;
4614;SDS011;2320;51.362;6.946;2024-02-21T08:58:12;10.50;;;5.87;;
4614;SDS011;2320;51.362;6.946;2024-02-21T09:00:39;11.30;;;5.77;;
4614;SDS011;2320;51.362;6.946;2024-02-21T09:03:05;9.70;;;5.10;;
4614;SDS011;2320;51.362;6.946;2024-02-21T09:05:30;13.20;;;6.70;;
4614;SDS011;2320;51.362;6.946;2024-02-21T09:07:56;10.70;;;5.87;;
4614;SDS011;2320;51.362;6.946;2024-02-21T09:10:22;10.97;;;6.60;;
4614;SDS011;2320;51.362;6.946;2024-02-21T09:12:47;15.63;;;5.70;;
4614;SDS011;2320;51.362;6.946;2024-02-21T09:15:13;14.23;;;5.60;;
4614;SDS011;2320;51.362;6.946;2024-02-21T09:17:39;8.90;;;5.57;;
4614;SDS011;2320;51.362;6.946;2024-02-21T09:20:04;15.17;;;6.00;;
4614;SDS011;2320;51.362;6.946;2024-02-21T09:22:31;10.53;;;5.60;;
4614;SDS011;2320;51.362;6.946;2024-02-21T09:24:59;14.47;;;6.10;;
4614;SDS011;2320;51.362;6.946;2024-02-21T09:27:25;10.40;;;5.73;;
4614;SDS011;2320;51.362;6.946;2024-02-21T09:29:51;10.60;;;6.13;;
4614;SDS011;2320;51.362;6.946;2024-02-21T09:32:18;11.40;;;7.13;;
4614;SDS011;2320;51.362;6.946;2024-02-21T09:34:44;11.50;;;5.10;;
4614;SDS011;2320;51.362;6.946;2024-02-21T09:37:10;16.83;;;5.70;;
4614;SDS011;2320;51.362;6.946;2024-02-21T09:39:36;8.70;;;5.13;;
4614;SDS011;2320;51.362;6.946;2024-02-21T09:42:11;9.40;;;5.50;;
4614;SDS011;2320;51.362;6.946;2024-02-21T09:44:37;7.30;;;5.23;;
4614;SDS011;2320;51.362;6.946;2024-02-21T09:47:04;14.67;;;5.50;;
4614;SDS011;2320;51.362;6.946;2024-02-21T09:49:34;14.53;;;6.43;;
4614;SDS011;2320;51.362;6.946;2024-02-21T09:52:06;16.30;;;7.10;;
4614;SDS011;2320;51.362;6.946;2024-02-21T09:54:35;15.87;;;7.80;;
4614;SDS011;2320;51.362;6.946;2024-02-21T09:57:01;16.53;;;7.10;;
4614;SDS011;2320;51.362;6.946;2024-02-21T09:59:31;9.93;;;7.43;;
4614;SDS011;2320;51.362;6.946;2024-02-21T10:01:57;11.67;;;7.83;;
4614;SDS011;2320;51.362;6.946;2024-02-21T10:04:26;11.33;;;7.97;;
4614;SDS011;2320;51.362;6.946;2024-02-21T10:06:55;13.53;;;7.07;;
4614;SDS011;2320;51.362;6.946;2024-02-21T10:09:27;9.10;;;6.83;;
4614;SDS011;2320;51.362;6.946;2024-02-21T10:11:54;13.80;;;6.37;;
4614;SDS011;2320;51.362;6.946;2024-02-21T10:14:20;14.93;;;6.97;;
4614;SDS011;2320;51.362;6.946;2024-02-21T10:16:47;10.10;;;6.17;;
4614;SDS011;2320;51.362;6.946;2024-02-21T10:19:19;12.83;;;6.60;;
4614;SDS011;2320;51.362;6.946;2024-02-21T10:22:00;9.47;;;5.60;;
4614;SDS011;2320;51.362;6.946;2024-02-21T10:24:33;5.93;;;5.33;;
4614;SDS011;2320;51.362;6.946;2024-02-21T10:27:03;10.43;;;5.37;;
4614;SDS011;2320;51.362;6.946;2024-02-21T10:29:33;8.77;;;5.73;;
4614;SDS011;2320;51.362;6.946;2024-02-21T10:32:06;11.50;;;6.67;;
4614;SDS011;2320;51.362;6.946;2024-02-21T10:34:36;9.07;;;5.30;;
4614;SDS011;2320;51.362;6.946;2024-02-21T10:37:03;11.20;;;5.67;;
4614;SDS011;2320;51.362;6.946;2024-02-21T10:39:31;9.90;;;5.40;;
4614;SDS011;2320;51.362;6.946;2024-02-21T10:41:59;9.17;;;4.50;;
4614;SDS011;2320;51.362;6.946;2024-02-21T10:44:29;9.97;;;5.57;;
4614;SDS011;2320;51.362;6.946;2024-02-21T10:46:56;9.33;;;5.33;;
4614;SDS011;2320;51.362;6.946;2024-02-21T10:49:23;6.70;;;5.03;;
4614;SDS011;2320;51.362;6.946;2024-02-21T10:51:54;7.33;;;5.63;;
4614;SDS011;2320;51.362;6.946;2024-02-21T10:56:59;6.73;;;4.60;;
4614;SDS011;2320;51.362;6.946;2024-02-21T10:59:27;6.87;;;5.33;;
4614;SDS011;2320;51.362;6.946;2024-02-21T11:01:55;5.80;;;4.50;;
4614;SDS011;2320;51.362;6.946;2024-02-21T11:04:20;6.57;;;5.07;;
4614;SDS011;2320;51.362;6.946;2024-02-21T11:06:46;7.00;;;4.93;;
4614;SDS011;2320;51.362;6.946;2024-02-21T11:09:13;5.33;;;4.13;;
4614;SDS011;2320;51.362;6.946;2024-02-21T11:11:40;8.67;;;5.47;;
4614;SDS011;2320;51.362;6.946;2024-02-21T11:14:08;6.10;;;4.73;;
4614;SDS011;2320;51.362;6.946;2024-02-21T11:16:35;12.30;;;5.30;;
4614;SDS011;2320;51.362;6.946;2024-02-21T11:19:09;8.80;;;4.43;;
4614;SDS011;2320;51.362;6.946;2024-02-21T11:21:43;12.77;;;5.33;;
4614;SDS011;2320;51.362;6.946;2024-02-21T11:24:09;12.30;;;5.37;;
4614;SDS011;2320;51.362;6.946;2024-02-21T11:26:36;6.77;;;4.80;;
4614;SDS011;2320;51.362;6.946;2024-02-21T11:29:03;8.20;;;5.23;;
4614;SDS011;2320;51.362;6.946;2024-02-21T11:34:10;12.43;;;5.00;;
4614;SDS011;2320;51.362;6.946;2024-02-21T11:36:36;6.93;;;4.60;;
4614;SDS011;2320;51.362;6.946;2024-02-21T11:39:11;8.63;;;4.80;;
4614;SDS011;2320;51.362;6.946;2024-02-21T11:41:36;9.17;;;4.90;;
4614;SDS011;2320;51.362;6.946;2024-02-21T11:44:02;10.50;;;4.90;;
4614;SDS011;2320;51.362;6.946;2024-02-21T11:46:28;8.90;;;4.33;;
4614;SDS011;2320;51.362;6.946;2024-02-21T11:48:54;8.80;;;4.57;;
4614;SDS011;2320;51.362;6.946;2024-02-21T11:51:21;8.60;;;4.17;;
4614;SDS011;2320;51.362;6.946;2024-02-21T11:53:50;13.80;;;6.53;;
4614;SDS011;2320;51.362;6.946;2024-02-21T11:56:16;8.20;;;4.90;;
4614;SDS011;2320;51.362;6.946;2024-02-21T11:58:41;8.30;;;3.90;;
4614;SDS011;2320;51.362;6.946;2024-02-21T12:01:07;12.30;;;5.00;;
4614;SDS011;2320;51.362;6.946;2024-02-21T12:03:33;8.00;;;4.43;;
4614;SDS011;2320;51.362;6.946;2024-02-21T12:06:01;4.70;;;3.53;;
4614;SDS011;2320;51.362;6.946;2024-02-21T12:08:28;12.27;;;5.00;;
4614;SDS011;2320;51.362;6.946;2024-02-21T12:11:15;5.00;;;3.70;;
4614;SDS011;2320;51.362;6.946;2024-02-21T12:13:57;8.97;;;4.17;;
4614;SDS011;2320;51.362;6.946;2024-02-21T12:16:25;10.23;;;5.60;;
4614;SDS011;2320;51.362;6.946;2024-02-21T12:18:52;8.93;;;4.40;;
4614;SDS011;2320;51.362;6.946;2024-02-21T12:21:18;15.33;;;4.57;;
4614;SDS011;2320;51.362;6.946;2024-02-21T12:23:44;8.70;;;4.73;;
4614;SDS011;2320;51.362;6.946;2024-02-21T12:26:12;8.43;;;4.30;;
4614;SDS011;2320;51.362;6.946;2024-02-21T12:28:37;8.53;;;4.73;;
4614;SDS011;2320;51.362;6.946;2024-02-21T12:31:03;8.57;;;4.57;;
4614;SDS011;2320;51.362;6.946;2024-02-21T12:33:29;7.93;;;4.10;;
4614;SDS011;2320;51.362;6.946;2024-02-21T12:35:55;9.07;;;4.83;;
4614;SDS011;2320;51.362;6.946;2024-02-21T12:38:20;6.83;;;4.30;;
4614;SDS011;2320;51.362;6.946;2024-02-21T12:40:46;6.73;;;3.80;;
4614;SDS011;2320;51.362;6.946;2024-02-21T12:43:11;8.27;;;4.00;;
4614;SDS011;2320;51.362;6.946;2024-02-21T12:45:37;8.27;;;4.13;;
4614;SDS011;2320;51.362;6.946;2024-02-21T12:48:02;10.93;;;4.77;;
4614;SDS011;2320;51.362;6.946;2024-02-21T12:50:29;13.33;;;4.93;;
4614;SDS011;2320;51.362;6.946;2024-02-21T12:52:56;6.27;;;3.93;;
4614;SDS011;2320;51.362;6.946;2024-02-21T12:55:23;10.57;;;4.50;;
4614;SDS011;2320;51.362;6.946;2024-02-21T12:57:49;7.50;;;3.37;;
4614;SDS011;2320;51.362;6.946;2024-02-21T13:00:14;7.10;;;3.93;;
4614;SDS011;2320;51.362;6.946;2024-02-21T13:02:40;10.83;;;4.33;;
4614;SDS011;2320;51.362;6.946;2024-02-21T13:05:06;8.67;;;4.50;;
4614;SDS011;2320;51.362;6.946;2024-02-21T13:07:32;9.73;;;5.07;;
4614;SDS011;2320;51.362;6.946;2024-02-21T13:09:58;6.73;;;3.73;;
4614;SDS011;2320;51.362;6.946;2024-02-21T13:12:24;9.23;;;4.50;;
4614;SDS011;2320;51.362;6.946;2024-02-21T13:14:51;9.63;;;3.73;;
4614;SDS011;2320;51.362;6.946;2024-02-21T13:17:16;10.97;;;3.93;;
4614;SDS011;2320;51.362;6.946;2024-02-21T13:19:42;10.60;;;6.97;;
4614;SDS011;2320;51.362;6.946;2024-02-21T13:22:07;10.47;;;3.50;;
4614;SDS011;2320;51.362;6.946;2024-02-21T13:24:34;8.27;;;3.40;;
4614;SDS011;2320;51.362;6.946;2024-02-21T13:26:59;7.30;;;3.40;;
4614;SDS011;2320;51.362;6.946;2024-02-21T13:29:25;6.50;;;3.60;;
4614;SDS011;2320;51.362;6.946;2024-02-21T13:31:50;7.00;;;3.70;;
4614;SDS011;2320;51.362;6.946;2024-02-21T13:34:16;9.80;;;3.53;;
4614;SDS011;2320;51.362;6.946;2024-02-21T13:36:42;6.97;;;3.80;;
4614;SDS011;2320;51.362;6.946;2024-02-21T13:39:08;10.53;;;3.50;;
4614;SDS011;2320;51.362;6.946;2024-02-21T13:41:33;6.03;;;4.40;;
4614;SDS011;2320;51.362;6.946;2024-02-21T13:43:59;8.30;;;3.70;;
4614;SDS011;2320;51.362;6.946;2024-02-21T13:46:26;8.03;;;3.23;;
4614;SDS011;2320;51.362;6.946;2024-02-21T13:48:54;6.53;;;3.90;;
4614;SDS011;2320;51.362;6.946;2024-02-21T13:51:28;8.70;;;3.63;;
4614;SDS011;2320;51.362;6.946;2024-02-21T13:53:53;9.43;;;4.10;;
4614;SDS011;2320;51.362;6.946;2024-02-21T13:56:19;11.50;;;3.90;;
4614;SDS011;2320;51.362;6.946;2024-02-21T13:58:44;12.70;;;4.70;;
4614;SDS011;2320;51.362;6.946;2024-02-21T14:01:10;5.73;;;3.33;;
4614;SDS011;2320;51.362;6.946;2024-02-21T14:03:35;5.77;;;2.90;;
4614;SDS011;2320;51.362;6.946;2024-02-21T14:06:01;5.20;;;3.07;;
4614;SDS011;2320;51.362;6.946;2024-02-21T14:08:27;6.63;;;3.23;;
4614;SDS011;2320;51.362;6.946;2024-02-21T14:10:52;7.30;;;3.40;;
4614;SDS011;2320;51.362;6.946;2024-02-21T14:13:20;7.63;;;4.13;;
4614;SDS011;2320;51.362;6.946;2024-02-21T14:15:46;7.50;;;4.20;;
4614;SDS011;2320;51.362;6.946;2024-02-21T14:18:12;7.17;;;3.20;;
4614;SDS011;2320;51.362;6.946;2024-02-21T14:20:39;4.80;;;3.57;;
4614;SDS011;2320;51.362;6.946;2024-02-21T14:23:04;3.80;;;2.90;;
4614;SDS011;2320;51.362;6.946;2024-02-21T14:25:30;9.20;;;3.57;;
4614;SDS011;2320;51.362;6.946;2024-02-21T14:27:55;6.30;;;3.57;;
4614;SDS011;2320;51.362;6.946;2024-02-21T14:30:21;6.27;;;3.57;;
4614;SDS011;2320;51.362;6.946;2024-02-21T14:32:47;6.00;;;3.80;;
4614;SDS011;2320;51.362;6.946;2024-02-21T14:35:12;7.10;;;3.70;;
4614;SDS011;2320;51.362;6.946;2024-02-21T14:37:38;6.77;;;3.97;;
4614;SDS011;2320;51.362;6.946;2024-02-21T14:40:03;8.03;;;3.13;;
4614;SDS011;2320;51.362;6.946;2024-02-21T14:42:29;8.53;;;3.97;;
4614;SDS011;2320;51.362;6.946;2024-02-21T14:44:55;6.60;;;3.33;;
4614;SDS011;2320;51.362;6.946;2024-02-21T14:47:28;15.83;;;5.03;;
4614;SDS011;2320;51.362;6.946;2024-02-21T14:49:55;7.93;;;4.67;;
4614;SDS011;2320;51.362;6.946;2024-02-21T14:52:21;6.57;;;3.30;;
4614;SDS011;2320;51.362;6.946;2024-02-21T14:54:46;6.57;;;3.23;;
4614;SDS011;2320;51.362;6.946;2024-02-21T14:57:16;14.97;;;4.30;;
4614;SDS011;2320;51.362;6.946;2024-02-21T14:59:42;8.03;;;3.23;;
4614;SDS011;2320;51.362;6.946;2024-02-21T15:02:08;7.90;;;3.47;;
4614;SDS011;2320;51.362;6.946;2024-02-21T15:04:34;7.83;;;3.53;;